KSYN/SYN METAR and TAF weather

Enter ICAO airport designator
Station Type Date Time Source
KSYN METAR 2024/05/28 22:55 UTC NOAA

KSYN 282255Z AUTO 01004KT 10SM SCT043 SCT055 BKN080 18/09 A3011 RMK AO2 T01750093


Station Type Date Time Source
KSYN Decoded METAR 2024/05/28 22:55 UTC NOAA

Stanton, Stanton Airfield, MN, United States (KSYN) 44-28-31N 093-00-58W
May 28, 2024 - 06:55 PM EDT / 2024.05.28 2255 UTC
Wind: from the N (010 degrees) at 5 MPH (4 KT):0
Visibility: 10 mile(s):0
Sky conditions: mostly cloudy
Temperature: 63.5 F (17.5 C)
Dew Point: 48.7 F (9.3 C)
Relative Humidity: 58%
Pressure (altimeter): 30.11 in. Hg (1019 hPa)
ob: KSYN 282255Z AUTO 01004KT 10SM SCT043 SCT055 BKN080 18/09 A3011 RMK AO2 T01750093
cycle: 23

Station Type Date Time Source
KSYN TAF UTC NOAA

Error!

Example: see airport list